sensor_id;sensor_type;location;lat;lon;timestamp;P1;durP1;ratioP1;P2;durP2;ratioP2
23362;SDS011;11853;48.080;11.960;2023-06-14T00:00:31;3.40;;;3.10;;
23362;SDS011;11853;48.080;11.960;2023-06-14T00:02:56;4.15;;;3.25;;
23362;SDS011;11853;48.080;11.960;2023-06-14T00:05:23;5.28;;;3.35;;
23362;SDS011;11853;48.080;11.960;2023-06-14T00:07:49;3.92;;;3.40;;
23362;SDS011;11853;48.080;11.960;2023-06-14T00:10:18;3.78;;;3.40;;
23362;SDS011;11853;48.080;11.960;2023-06-14T00:12:44;3.83;;;3.40;;
23362;SDS011;11853;48.080;11.960;2023-06-14T00:15:09;3.55;;;3.25;;
23362;SDS011;11853;48.080;11.960;2023-06-14T00:17:35;4.10;;;3.28;;
23362;SDS011;11853;48.080;11.960;2023-06-14T00:20:04;4.10;;;3.15;;
23362;SDS011;11853;48.080;11.960;2023-06-14T00:22:32;5.22;;;3.47;;
23362;SDS011;11853;48.080;11.960;2023-06-14T00:24:59;3.63;;;3.28;;
23362;SDS011;11853;48.080;11.960;2023-06-14T00:27:25;3.92;;;3.58;;
23362;SDS011;11853;48.080;11.960;2023-06-14T00:29:51;4.38;;;3.65;;
23362;SDS011;11853;48.080;11.960;2023-06-14T00:32:17;4.50;;;4.10;;
23362;SDS011;11853;48.080;11.960;2023-06-14T00:34:43;4.88;;;4.47;;
23362;SDS011;11853;48.080;11.960;2023-06-14T00:37:09;4.22;;;3.83;;
23362;SDS011;11853;48.080;11.960;2023-06-14T00:39:34;4.50;;;4.10;;
23362;SDS011;11853;48.080;11.960;2023-06-14T00:42:00;4.40;;;4.00;;
23362;SDS011;11853;48.080;11.960;2023-06-14T00:44:25;6.35;;;4.22;;
23362;SDS011;11853;48.080;11.960;2023-06-14T00:46:51;4.72;;;4.20;;
23362;SDS011;11853;48.080;11.960;2023-06-14T00:49:17;4.18;;;3.72;;
23362;SDS011;11853;48.080;11.960;2023-06-14T00:51:43;3.88;;;3.58;;
23362;SDS011;11853;48.080;11.960;2023-06-14T00:54:08;4.70;;;4.20;;
23362;SDS011;11853;48.080;11.960;2023-06-14T00:56:37;3.92;;;3.38;;
23362;SDS011;11853;48.080;11.960;2023-06-14T00:59:04;4.55;;;3.90;;
23362;SDS011;11853;48.080;11.960;2023-06-14T01:01:31;4.10;;;3.67;;
23362;SDS011;11853;48.080;11.960;2023-06-14T01:03:58;3.67;;;3.38;;
23362;SDS011;11853;48.080;11.960;2023-06-14T01:06:35;4.00;;;3.30;;
23362;SDS011;11853;48.080;11.960;2023-06-14T01:09:09;3.90;;;3.50;;
23362;SDS011;11853;48.080;11.960;2023-06-14T01:12:07;3.67;;;3.38;;
23362;SDS011;11853;48.080;11.960;2023-06-14T01:15:02;3.70;;;3.40;;
23362;SDS011;11853;48.080;11.960;2023-06-14T01:17:28;5.03;;;3.80;;
23362;SDS011;11853;48.080;11.960;2023-06-14T01:20:05;3.40;;;3.10;;
23362;SDS011;11853;48.080;11.960;2023-06-14T01:22:35;3.67;;;3.33;;
23362;SDS011;11853;48.080;11.960;2023-06-14T01:25:01;4.43;;;3.08;;
23362;SDS011;11853;48.080;11.960;2023-06-14T01:27:26;4.00;;;3.60;;
23362;SDS011;11853;48.080;11.960;2023-06-14T01:29:57;3.67;;;3.22;;
23362;SDS011;11853;48.080;11.960;2023-06-14T01:32:26;3.83;;;3.42;;
23362;SDS011;11853;48.080;11.960;2023-06-14T01:34:54;4.13;;;3.72;;
23362;SDS011;11853;48.080;11.960;2023-06-14T01:37:20;3.83;;;3.35;;
23362;SDS011;11853;48.080;11.960;2023-06-14T01:39:47;3.97;;;3.45;;
23362;SDS011;11853;48.080;11.960;2023-06-14T01:42:17;4.50;;;3.38;;
23362;SDS011;11853;48.080;11.960;2023-06-14T01:44:43;3.50;;;3.20;;
23362;SDS011;11853;48.080;11.960;2023-06-14T01:47:10;4.07;;;3.35;;
23362;SDS011;11853;48.080;11.960;2023-06-14T01:49:37;4.18;;;3.75;;
23362;SDS011;11853;48.080;11.960;2023-06-14T01:52:03;3.95;;;3.22;;
23362;SDS011;11853;48.080;11.960;2023-06-14T01:54:29;3.70;;;3.40;;
23362;SDS011;11853;48.080;11.960;2023-06-14T01:56:56;4.47;;;3.33;;
23362;SDS011;11853;48.080;11.960;2023-06-14T01:59:21;4.35;;;3.40;;
23362;SDS011;11853;48.080;11.960;2023-06-14T02:01:47;4.25;;;3.85;;
23362;SDS011;11853;48.080;11.960;2023-06-14T02:04:12;3.83;;;3.40;;
23362;SDS011;11853;48.080;11.960;2023-06-14T02:06:38;4.35;;;3.63;;
23362;SDS011;11853;48.080;11.960;2023-06-14T02:09:04;4.25;;;3.60;;
23362;SDS011;11853;48.080;11.960;2023-06-14T02:11:29;4.55;;;3.53;;
23362;SDS011;11853;48.080;11.960;2023-06-14T02:13:55;3.42;;;3.13;;
23362;SDS011;11853;48.080;11.960;2023-06-14T02:16:21;5.32;;;3.60;;
23362;SDS011;11853;48.080;11.960;2023-06-14T02:18:47;3.30;;;2.90;;
23362;SDS011;11853;48.080;11.960;2023-06-14T02:21:13;4.28;;;3.60;;
23362;SDS011;11853;48.080;11.960;2023-06-14T02:23:39;3.50;;;3.30;;
23362;SDS011;11853;48.080;11.960;2023-06-14T02:26:05;4.00;;;3.60;;
23362;SDS011;11853;48.080;11.960;2023-06-14T02:28:31;5.30;;;3.58;;
23362;SDS011;11853;48.080;11.960;2023-06-14T02:30:56;4.82;;;4.35;;
23362;SDS011;11853;48.080;11.960;2023-06-14T02:33:22;4.65;;;3.78;;
23362;SDS011;11853;48.080;11.960;2023-06-14T02:35:48;4.00;;;3.53;;
23362;SDS011;11853;48.080;11.960;2023-06-14T02:38:13;7.22;;;3.80;;
23362;SDS011;11853;48.080;11.960;2023-06-14T02:40:39;4.97;;;4.05;;
23362;SDS011;11853;48.080;11.960;2023-06-14T02:43:07;4.03;;;3.65;;
23362;SDS011;11853;48.080;11.960;2023-06-14T02:45:33;4.72;;;3.67;;
23362;SDS011;11853;48.080;11.960;2023-06-14T02:47:58;3.95;;;3.55;;
23362;SDS011;11853;48.080;11.960;2023-06-14T02:50:24;4.22;;;3.42;;
23362;SDS011;11853;48.080;11.960;2023-06-14T02:52:50;3.90;;;3.60;;
23362;SDS011;11853;48.080;11.960;2023-06-14T02:55:17;5.75;;;4.15;;
23362;SDS011;11853;48.080;11.960;2023-06-14T02:57:43;5.85;;;4.05;;
23362;SDS011;11853;48.080;11.960;2023-06-14T03:00:08;4.63;;;3.85;;
23362;SDS011;11853;48.080;11.960;2023-06-14T03:02:35;5.15;;;4.03;;
23362;SDS011;11853;48.080;11.960;2023-06-14T03:05:01;5.25;;;3.90;;
23362;SDS011;11853;48.080;11.960;2023-06-14T03:07:28;5.57;;;3.75;;
23362;SDS011;11853;48.080;11.960;2023-06-14T03:09:54;7.93;;;3.90;;
23362;SDS011;11853;48.080;11.960;2023-06-14T03:12:20;4.93;;;4.07;;
23362;SDS011;11853;48.080;11.960;2023-06-14T03:14:46;4.18;;;3.53;;
23362;SDS011;11853;48.080;11.960;2023-06-14T03:17:11;6.38;;;4.22;;
23362;SDS011;11853;48.080;11.960;2023-06-14T03:19:37;3.88;;;3.45;;
23362;SDS011;11853;48.080;11.960;2023-06-14T03:25:38;3.78;;;3.42;;
23362;SDS011;11853;48.080;11.960;2023-06-14T03:28:05;4.97;;;4.10;;
23362;SDS011;11853;48.080;11.960;2023-06-14T03:30:31;4.50;;;4.10;;
23362;SDS011;11853;48.080;11.960;2023-06-14T03:32:57;4.63;;;4.22;;
23362;SDS011;11853;48.080;11.960;2023-06-14T03:35:26;4.35;;;3.28;;
23362;SDS011;11853;48.080;11.960;2023-06-14T03:41:13;4.53;;;3.60;;
23362;SDS011;11853;48.080;11.960;2023-06-14T03:43:39;3.90;;;3.50;;
23362;SDS011;11853;48.080;11.960;2023-06-14T03:46:04;5.30;;;4.03;;
23362;SDS011;11853;48.080;11.960;2023-06-14T03:48:30;4.53;;;3.95;;
23362;SDS011;11853;48.080;11.960;2023-06-14T03:50:56;6.97;;;4.20;;
23362;SDS011;11853;48.080;11.960;2023-06-14T03:53:22;4.10;;;3.70;;
23362;SDS011;11853;48.080;11.960;2023-06-14T03:55:52;4.20;;;3.80;;
23362;SDS011;11853;48.080;11.960;2023-06-14T03:58:19;5.68;;;4.28;;
23362;SDS011;11853;48.080;11.960;2023-06-14T04:00:44;6.18;;;4.32;;
23362;SDS011;11853;48.080;11.960;2023-06-14T04:03:10;4.15;;;3.75;;
23362;SDS011;11853;48.080;11.960;2023-06-14T04:05:38;5.55;;;4.10;;
23362;SDS011;11853;48.080;11.960;2023-06-14T04:08:07;5.07;;;4.00;;
23362;SDS011;11853;48.080;11.960;2023-06-14T04:10:39;6.30;;;4.03;;
23362;SDS011;11853;48.080;11.960;2023-06-14T04:13:06;5.95;;;4.38;;
23362;SDS011;11853;48.080;11.960;2023-06-14T04:15:32;4.70;;;4.10;;
23362;SDS011;11853;48.080;11.960;2023-06-14T04:17:58;5.60;;;4.40;;
23362;SDS011;11853;48.080;11.960;2023-06-14T04:20:24;4.97;;;4.40;;
23362;SDS011;11853;48.080;11.960;2023-06-14T04:22:50;5.88;;;4.38;;
23362;SDS011;11853;48.080;11.960;2023-06-14T04:25:17;5.22;;;4.72;;
23362;SDS011;11853;48.080;11.960;2023-06-14T04:27:43;4.97;;;4.10;;
23362;SDS011;11853;48.080;11.960;2023-06-14T04:30:09;5.47;;;4.35;;
23362;SDS011;11853;48.080;11.960;2023-06-14T04:32:35;5.05;;;4.18;;
23362;SDS011;11853;48.080;11.960;2023-06-14T04:35:07;4.55;;;4.15;;
23362;SDS011;11853;48.080;11.960;2023-06-14T04:37:33;6.25;;;4.72;;
23362;SDS011;11853;48.080;11.960;2023-06-14T04:39:59;6.10;;;4.20;;
23362;SDS011;11853;48.080;11.960;2023-06-14T04:42:24;6.65;;;4.63;;
23362;SDS011;11853;48.080;11.960;2023-06-14T04:44:55;7.15;;;4.32;;
23362;SDS011;11853;48.080;11.960;2023-06-14T04:47:20;5.40;;;4.63;;
23362;SDS011;11853;48.080;11.960;2023-06-14T04:49:46;6.95;;;5.03;;
23362;SDS011;11853;48.080;11.960;2023-06-14T04:52:12;5.70;;;4.85;;
23362;SDS011;11853;48.080;11.960;2023-06-14T04:54:41;8.10;;;5.00;;
23362;SDS011;11853;48.080;11.960;2023-06-14T04:57:08;5.43;;;4.60;;
23362;SDS011;11853;48.080;11.960;2023-06-14T04:59:39;5.60;;;4.88;;
23362;SDS011;11853;48.080;11.960;2023-06-14T05:02:05;5.60;;;4.68;;
23362;SDS011;11853;48.080;11.960;2023-06-14T05:04:32;6.20;;;4.80;;
23362;SDS011;11853;48.080;11.960;2023-06-14T05:06:58;5.85;;;5.10;;
23362;SDS011;11853;48.080;11.960;2023-06-14T05:09:23;6.55;;;4.70;;
23362;SDS011;11853;48.080;11.960;2023-06-14T05:11:49;5.32;;;4.82;;
23362;SDS011;11853;48.080;11.960;2023-06-14T05:14:15;5.43;;;4.88;;
23362;SDS011;11853;48.080;11.960;2023-06-14T05:16:41;6.68;;;5.15;;
23362;SDS011;11853;48.080;11.960;2023-06-14T05:19:08;4.80;;;4.38;;
23362;SDS011;11853;48.080;11.960;2023-06-14T05:21:35;7.00;;;5.07;;
23362;SDS011;11853;48.080;11.960;2023-06-14T05:24:00;5.20;;;4.70;;
23362;SDS011;11853;48.080;11.960;2023-06-14T05:26:26;7.55;;;4.78;;
23362;SDS011;11853;48.080;11.960;2023-06-14T05:28:55;7.93;;;4.97;;
23362;SDS011;11853;48.080;11.960;2023-06-14T05:31:24;8.88;;;5.30;;
23362;SDS011;11853;48.080;11.960;2023-06-14T05:33:51;6.30;;;5.00;;
23362;SDS011;11853;48.080;11.960;2023-06-14T05:36:17;6.50;;;4.82;;
23362;SDS011;11853;48.080;11.960;2023-06-14T05:38:44;6.20;;;4.70;;
23362;SDS011;11853;48.080;11.960;2023-06-14T05:41:10;4.80;;;4.38;;
23362;SDS011;11853;48.080;11.960;2023-06-14T05:43:36;6.25;;;4.93;;
23362;SDS011;11853;48.080;11.960;2023-06-14T05:46:02;6.88;;;5.32;;
23362;SDS011;11853;48.080;11.960;2023-06-14T05:48:28;8.15;;;4.90;;
23362;SDS011;11853;48.080;11.960;2023-06-14T05:50:54;8.20;;;5.07;;
23362;SDS011;11853;48.080;11.960;2023-06-14T05:53:19;5.75;;;4.88;;
23362;SDS011;11853;48.080;11.960;2023-06-14T05:55:45;6.38;;;5.03;;
23362;SDS011;11853;48.080;11.960;2023-06-14T05:58:10;6.70;;;4.85;;
23362;SDS011;11853;48.080;11.960;2023-06-14T06:00:38;8.15;;;5.03;;
23362;SDS011;11853;48.080;11.960;2023-06-14T06:03:04;6.22;;;5.00;;
23362;SDS011;11853;48.080;11.960;2023-06-14T06:05:33;5.47;;;4.35;;
23362;SDS011;11853;48.080;11.960;2023-06-14T06:07:59;6.68;;;5.30;;
23362;SDS011;11853;48.080;11.960;2023-06-14T06:10:25;5.82;;;4.20;;
23362;SDS011;11853;48.080;11.960;2023-06-14T06:12:51;7.72;;;4.35;;
23362;SDS011;11853;48.080;11.960;2023-06-14T06:15:19;6.50;;;5.22;;
23362;SDS011;11853;48.080;11.960;2023-06-14T06:17:45;8.50;;;5.00;;
23362;SDS011;11853;48.080;11.960;2023-06-14T06:20:11;5.88;;;4.53;;
23362;SDS011;11853;48.080;11.960;2023-06-14T06:22:37;10.88;;;4.47;;
23362;SDS011;11853;48.080;11.960;2023-06-14T06:25:03;4.55;;;4.10;;
23362;SDS011;11853;48.080;11.960;2023-06-14T06:27:29;6.15;;;4.97;;
23362;SDS011;11853;48.080;11.960;2023-06-14T06:29:55;4.68;;;4.20;;
23362;SDS011;11853;48.080;11.960;2023-06-14T06:32:21;6.80;;;4.72;;
23362;SDS011;11853;48.080;11.960;2023-06-14T06:34:47;6.38;;;4.25;;
23362;SDS011;11853;48.080;11.960;2023-06-14T06:37:13;6.53;;;4.32;;
23362;SDS011;11853;48.080;11.960;2023-06-14T06:39:39;5.78;;;4.75;;
23362;SDS011;11853;48.080;11.960;2023-06-14T06:42:05;4.60;;;3.80;;
23362;SDS011;11853;48.080;11.960;2023-06-14T06:44:31;5.38;;;4.38;;
23362;SDS011;11853;48.080;11.960;2023-06-14T06:46:57;5.32;;;3.70;;
23362;SDS011;11853;48.080;11.960;2023-06-14T06:49:23;6.55;;;4.30;;
23362;SDS011;11853;48.080;11.960;2023-06-14T06:51:59;5.93;;;4.03;;
23362;SDS011;11853;48.080;11.960;2023-06-14T06:54:28;5.85;;;4.10;;
23362;SDS011;11853;48.080;11.960;2023-06-14T06:56:54;5.50;;;4.55;;
23362;SDS011;11853;48.080;11.960;2023-06-14T06:59:20;4.95;;;3.88;;
23362;SDS011;11853;48.080;11.960;2023-06-14T07:01:46;5.85;;;4.07;;
23362;SDS011;11853;48.080;11.960;2023-06-14T07:04:12;4.40;;;4.00;;
23362;SDS011;11853;48.080;11.960;2023-06-14T07:06:38;4.38;;;3.63;;
23362;SDS011;11853;48.080;11.960;2023-06-14T07:09:04;6.20;;;4.18;;
23362;SDS011;11853;48.080;11.960;2023-06-14T07:11:38;6.30;;;4.45;;
23362;SDS011;11853;48.080;11.960;2023-06-14T07:14:07;5.32;;;4.65;;
23362;SDS011;11853;48.080;11.960;2023-06-14T07:16:51;5.57;;;4.43;;
23362;SDS011;11853;48.080;11.960;2023-06-14T07:19:17;5.93;;;4.45;;
23362;SDS011;11853;48.080;11.960;2023-06-14T07:21:46;5.00;;;4.35;;
23362;SDS011;11853;48.080;11.960;2023-06-14T07:24:14;7.38;;;4.00;;
23362;SDS011;11853;48.080;11.960;2023-06-14T07:26:40;5.95;;;4.30;;
23362;SDS011;11853;48.080;11.960;2023-06-14T07:29:07;4.95;;;3.78;;
23362;SDS011;11853;48.080;11.960;2023-06-14T07:31:36;7.00;;;4.45;;
23362;SDS011;11853;48.080;11.960;2023-06-14T07:34:01;5.72;;;3.97;;
23362;SDS011;11853;48.080;11.960;2023-06-14T07:36:27;6.97;;;4.40;;
23362;SDS011;11853;48.080;11.960;2023-06-14T07:38:53;4.72;;;3.80;;
23362;SDS011;11853;48.080;11.960;2023-06-14T07:41:19;5.43;;;3.88;;
23362;SDS011;11853;48.080;11.960;2023-06-14T07:43:44;6.53;;;3.60;;
23362;SDS011;11853;48.080;11.960;2023-06-14T07:46:10;5.47;;;4.15;;
23362;SDS011;11853;48.080;11.960;2023-06-14T07:48:36;4.63;;;4.18;;
23362;SDS011;11853;48.080;11.960;2023-06-14T07:51:01;5.07;;;3.92;;
23362;SDS011;11853;48.080;11.960;2023-06-14T07:53:27;4.95;;;4.18;;
23362;SDS011;11853;48.080;11.960;2023-06-14T07:55:53;8.38;;;4.68;;
23362;SDS011;11853;48.080;11.960;2023-06-14T07:58:19;4.95;;;4.05;;
23362;SDS011;11853;48.080;11.960;2023-06-14T08:00:45;6.35;;;4.30;;
23362;SDS011;11853;48.080;11.960;2023-06-14T08:03:12;6.32;;;4.22;;
23362;SDS011;11853;48.080;11.960;2023-06-14T08:05:38;6.05;;;3.53;;
23362;SDS011;11853;48.080;11.960;2023-06-14T08:08:03;6.05;;;3.75;;
23362;SDS011;11853;48.080;11.960;2023-06-14T08:10:29;5.47;;;3.92;;
23362;SDS011;11853;48.080;11.960;2023-06-14T08:12:55;4.20;;;3.50;;
23362;SDS011;11853;48.080;11.960;2023-06-14T08:15:20;8.27;;;3.72;;
23362;SDS011;11853;48.080;11.960;2023-06-14T08:17:48;4.95;;;3.97;;
23362;SDS011;11853;48.080;11.960;2023-06-14T08:20:20;5.95;;;3.28;;
23362;SDS011;11853;48.080;11.960;2023-06-14T08:22:54;4.38;;;3.97;;
23362;SDS011;11853;48.080;11.960;2023-06-14T08:25:23;5.53;;;3.90;;
23362;SDS011;11853;48.080;11.960;2023-06-14T08:27:49;4.22;;;3.83;;
23362;SDS011;11853;48.080;11.960;2023-06-14T08:30:15;5.68;;;3.80;;
23362;SDS011;11853;48.080;11.960;2023-06-14T08:32:42;7.85;;;4.00;;
23362;SDS011;11853;48.080;11.960;2023-06-14T08:35:08;7.32;;;3.90;;
23362;SDS011;11853;48.080;11.960;2023-06-14T08:37:37;5.50;;;3.67;;
23362;SDS011;11853;48.080;11.960;2023-06-14T08:40:18;3.67;;;3.30;;
23362;SDS011;11853;48.080;11.960;2023-06-14T08:42:52;5.15;;;3.63;;
23362;SDS011;11853;48.080;11.960;2023-06-14T08:45:27;4.25;;;3.85;;
23362;SDS011;11853;48.080;11.960;2023-06-14T08:50:39;3.80;;;3.40;;
23362;SDS011;11853;48.080;11.960;2023-06-14T08:53:15;4.65;;;3.97;;
23362;SDS011;11853;48.080;11.960;2023-06-14T08:58:29;3.13;;;2.83;;
23362;SDS011;11853;48.080;11.960;2023-06-14T09:00:59;4.85;;;4.25;;
23362;SDS011;11853;48.080;11.960;2023-06-14T09:03:28;4.03;;;3.55;;
23362;SDS011;11853;48.080;11.960;2023-06-14T09:05:58;5.07;;;3.50;;
23362;SDS011;11853;48.080;11.960;2023-06-14T09:08:27;3.85;;;3.50;;
23362;SDS011;11853;48.080;11.960;2023-06-14T09:10:56;6.10;;;3.42;;
23362;SDS011;11853;48.080;11.960;2023-06-14T09:13:22;3.80;;;3.33;;
23362;SDS011;11853;48.080;11.960;2023-06-14T09:15:48;6.28;;;3.70;;
23362;SDS011;11853;48.080;11.960;2023-06-14T09:18:13;3.40;;;2.97;;
23362;SDS011;11853;48.080;11.960;2023-06-14T09:20:40;3.72;;;3.40;;
23362;SDS011;11853;48.080;11.960;2023-06-14T09:23:06;6.25;;;3.40;;
23362;SDS011;11853;48.080;11.960;2023-06-14T09:25:36;4.78;;;3.60;;
23362;SDS011;11853;48.080;11.960;2023-06-14T09:28:07;4.82;;;3.42;;
23362;SDS011;11853;48.080;11.960;2023-06-14T09:30:41;3.13;;;2.85;;
23362;SDS011;11853;48.080;11.960;2023-06-14T09:33:10;6.05;;;3.50;;
23362;SDS011;11853;48.080;11.960;2023-06-14T09:35:41;3.55;;;3.25;;
23362;SDS011;11853;48.080;11.960;2023-06-14T09:38:07;7.05;;;3.85;;
23362;SDS011;11853;48.080;11.960;2023-06-14T09:40:35;5.57;;;3.30;;
23362;SDS011;11853;48.080;11.960;2023-06-14T09:43:03;3.67;;;3.38;;
23362;SDS011;11853;48.080;11.960;2023-06-14T09:45:31;4.13;;;3.15;;
23362;SDS011;11853;48.080;11.960;2023-06-14T09:47:58;4.15;;;3.85;;
23362;SDS011;11853;48.080;11.960;2023-06-14T09:50:24;4.65;;;3.60;;
23362;SDS011;11853;48.080;11.960;2023-06-14T09:52:50;4.85;;;3.30;;
23362;SDS011;11853;48.080;11.960;2023-06-14T09:55:17;3.92;;;3.17;;
23362;SDS011;11853;48.080;11.960;2023-06-14T09:57:45;4.80;;;3.40;;
23362;SDS011;11853;48.080;11.960;2023-06-14T10:00:13;4.57;;;3.88;;
23362;SDS011;11853;48.080;11.960;2023-06-14T10:02:40;4.25;;;3.60;;
23362;SDS011;11853;48.080;11.960;2023-06-14T10:05:12;4.90;;;3.45;;
23362;SDS011;11853;48.080;11.960;2023-06-14T10:07:43;3.95;;;3.20;;
23362;SDS011;11853;48.080;11.960;2023-06-14T10:10:17;7.88;;;3.47;;
23362;SDS011;11853;48.080;11.960;2023-06-14T10:12:44;6.53;;;3.40;;
23362;SDS011;11853;48.080;11.960;2023-06-14T10:15:10;5.18;;;3.45;;
23362;SDS011;11853;48.080;11.960;2023-06-14T10:17:44;3.22;;;2.90;;
23362;SDS011;11853;48.080;11.960;2023-06-14T10:23:13;6.35;;;3.67;;
23362;SDS011;11853;48.080;11.960;2023-06-14T10:25:44;3.47;;;3.17;;
23362;SDS011;11853;48.080;11.960;2023-06-14T10:31:06;4.90;;;3.25;;
23362;SDS011;11853;48.080;11.960;2023-06-14T10:33:35;5.68;;;3.47;;
23362;SDS011;11853;48.080;11.960;2023-06-14T10:38:57;4.60;;;3.22;;
23362;SDS011;11853;48.080;11.960;2023-06-14T10:41:33;3.25;;;2.95;;
23362;SDS011;11853;48.080;11.960;2023-06-14T10:46:47;5.80;;;3.53;;
23362;SDS011;11853;48.080;11.960;2023-06-14T10:49:36;3.88;;;3.47;;
23362;SDS011;11853;48.080;11.960;2023-06-14T10:52:09;5.57;;;3.38;;
23362;SDS011;11853;48.080;11.960;2023-06-14T10:57:54;3.47;;;3.17;;
23362;SDS011;11853;48.080;11.960;2023-06-14T11:00:24;4.07;;;3.03;;
23362;SDS011;11853;48.080;11.960;2023-06-14T11:05:41;4.47;;;3.90;;
23362;SDS011;11853;48.080;11.960;2023-06-14T11:11:07;4.10;;;3.25;;
23362;SDS011;11853;48.080;11.960;2023-06-14T11:13:34;4.32;;;3.60;;
23362;SDS011;11853;48.080;11.960;2023-06-14T11:16:03;4.57;;;3.60;;
23362;SDS011;11853;48.080;11.960;2023-06-14T11:18:36;3.78;;;3.30;;
23362;SDS011;11853;48.080;11.960;2023-06-14T11:21:02;3.92;;;3.33;;
23362;SDS011;11853;48.080;11.960;2023-06-14T11:23:28;4.68;;;3.70;;
23362;SDS011;11853;48.080;11.960;2023-06-14T11:25:54;4.05;;;3.50;;
23362;SDS011;11853;48.080;11.960;2023-06-14T11:28:20;5.28;;;3.60;;
23362;SDS011;11853;48.080;11.960;2023-06-14T11:30:47;5.70;;;3.10;;
23362;SDS011;11853;48.080;11.960;2023-06-14T11:33:16;4.80;;;3.65;;
23362;SDS011;11853;48.080;11.960;2023-06-14T11:35:46;4.10;;;3.17;;
23362;SDS011;11853;48.080;11.960;2023-06-14T11:38:12;4.25;;;3.83;;
23362;SDS011;11853;48.080;11.960;2023-06-14T11:40:41;4.20;;;2.97;;
23362;SDS011;11853;48.080;11.960;2023-06-14T11:43:16;3.67;;;3.38;;
23362;SDS011;11853;48.080;11.960;2023-06-14T11:45:48;4.20;;;3.53;;
23362;SDS011;11853;48.080;11.960;2023-06-14T11:48:41;4.88;;;3.70;;
23362;SDS011;11853;48.080;11.960;2023-06-14T11:51:07;5.13;;;3.72;;
23362;SDS011;11853;48.080;11.960;2023-06-14T11:53:33;4.45;;;3.90;;
23362;SDS011;11853;48.080;11.960;2023-06-14T11:55:59;3.95;;;3.55;;
23362;SDS011;11853;48.080;11.960;2023-06-14T11:58:25;4.70;;;3.47;;
23362;SDS011;11853;48.080;11.960;2023-06-14T12:00:52;4.53;;;3.30;;
23362;SDS011;11853;48.080;11.960;2023-06-14T12:03:22;4.72;;;3.60;;
23362;SDS011;11853;48.080;11.960;2023-06-14T12:05:50;4.88;;;3.40;;
23362;SDS011;11853;48.080;11.960;2023-06-14T12:08:31;4.43;;;3.50;;
23362;SDS011;11853;48.080;11.960;2023-06-14T12:11:03;3.63;;;3.33;;
23362;SDS011;11853;48.080;11.960;2023-06-14T12:13:29;4.43;;;3.47;;
23362;SDS011;11853;48.080;11.960;2023-06-14T12:15:55;5.80;;;3.63;;
23362;SDS011;11853;48.080;11.960;2023-06-14T12:18:31;7.72;;;3.80;;
23362;SDS011;11853;48.080;11.960;2023-06-14T12:20:59;4.85;;;3.30;;
23362;SDS011;11853;48.080;11.960;2023-06-14T12:23:49;3.83;;;3.47;;
23362;SDS011;11853;48.080;11.960;2023-06-14T12:26:18;3.42;;;3.13;;
23362;SDS011;11853;48.080;11.960;2023-06-14T12:28:45;5.30;;;3.80;;
23362;SDS011;11853;48.080;11.960;2023-06-14T12:31:12;7.97;;;3.50;;
23362;SDS011;11853;48.080;11.960;2023-06-14T12:33:39;3.55;;;3.25;;
23362;SDS011;11853;48.080;11.960;2023-06-14T12:36:09;4.68;;;3.38;;
23362;SDS011;11853;48.080;11.960;2023-06-14T12:38:35;3.90;;;3.53;;
23362;SDS011;11853;48.080;11.960;2023-06-14T12:41:02;6.45;;;3.42;;
23362;SDS011;11853;48.080;11.960;2023-06-14T12:43:30;4.85;;;3.40;;
23362;SDS011;11853;48.080;11.960;2023-06-14T12:46:07;5.40;;;3.25;;
23362;SDS011;11853;48.080;11.960;2023-06-14T12:48:32;3.60;;;3.30;;
23362;SDS011;11853;48.080;11.960;2023-06-14T12:50:59;7.25;;;3.70;;
23362;SDS011;11853;48.080;11.960;2023-06-14T12:53:25;6.53;;;4.00;;
23362;SDS011;11853;48.080;11.960;2023-06-14T12:55:50;5.68;;;3.75;;
23362;SDS011;11853;48.080;11.960;2023-06-14T12:58:16;3.88;;;3.58;;
23362;SDS011;11853;48.080;11.960;2023-06-14T13:00:42;6.60;;;3.67;;
23362;SDS011;11853;48.080;11.960;2023-06-14T13:03:09;5.90;;;3.65;;
23362;SDS011;11853;48.080;11.960;2023-06-14T13:05:35;5.13;;;3.53;;
23362;SDS011;11853;48.080;11.960;2023-06-14T13:08:02;3.95;;;3.50;;
23362;SDS011;11853;48.080;11.960;2023-06-14T13:10:27;5.00;;;3.38;;
23362;SDS011;11853;48.080;11.960;2023-06-14T13:12:53;4.13;;;3.72;;
23362;SDS011;11853;48.080;11.960;2023-06-14T13:15:18;3.95;;;3.55;;
23362;SDS011;11853;48.080;11.960;2023-06-14T13:17:45;3.75;;;3.45;;
23362;SDS011;11853;48.080;11.960;2023-06-14T13:20:13;4.35;;;3.30;;
23362;SDS011;11853;48.080;11.960;2023-06-14T13:22:40;3.88;;;3.58;;
23362;SDS011;11853;48.080;11.960;2023-06-14T13:25:06;6.40;;;4.22;;
23362;SDS011;11853;48.080;11.960;2023-06-14T13:27:32;3.70;;;3.40;;
23362;SDS011;11853;48.080;11.960;2023-06-14T13:29:57;5.65;;;3.50;;
23362;SDS011;11853;48.080;11.960;2023-06-14T13:32:23;4.88;;;3.42;;
23362;SDS011;11853;48.080;11.960;2023-06-14T13:34:49;5.72;;;3.40;;
23362;SDS011;11853;48.080;11.960;2023-06-14T13:37:14;4.95;;;3.60;;
23362;SDS011;11853;48.080;11.960;2023-06-14T13:39:40;4.55;;;3.60;;
23362;SDS011;11853;48.080;11.960;2023-06-14T13:42:05;5.05;;;3.45;;
23362;SDS011;11853;48.080;11.960;2023-06-14T13:44:31;5.82;;;3.63;;
23362;SDS011;11853;48.080;11.960;2023-06-14T13:46:57;3.65;;;3.35;;
23362;SDS011;11853;48.080;11.960;2023-06-14T13:49:22;4.03;;;3.50;;
23362;SDS011;11853;48.080;11.960;2023-06-14T13:51:48;5.10;;;4.07;;
23362;SDS011;11853;48.080;11.960;2023-06-14T13:54:13;4.85;;;3.72;;
23362;SDS011;11853;48.080;11.960;2023-06-14T13:56:42;5.20;;;3.83;;
23362;SDS011;11853;48.080;11.960;2023-06-14T13:59:07;4.68;;;3.53;;
23362;SDS011;11853;48.080;11.960;2023-06-14T14:01:34;4.32;;;3.40;;
23362;SDS011;11853;48.080;11.960;2023-06-14T14:04:00;4.35;;;3.50;;
23362;SDS011;11853;48.080;11.960;2023-06-14T14:06:26;4.38;;;3.70;;
23362;SDS011;11853;48.080;11.960;2023-06-14T14:08:51;3.80;;;3.50;;
23362;SDS011;11853;48.080;11.960;2023-06-14T14:11:18;8.10;;;3.53;;
23362;SDS011;11853;48.080;11.960;2023-06-14T14:13:44;4.88;;;3.72;;
23362;SDS011;11853;48.080;11.960;2023-06-14T14:16:10;4.60;;;3.38;;
23362;SDS011;11853;48.080;11.960;2023-06-14T14:18:36;5.82;;;3.50;;
23362;SDS011;11853;48.080;11.960;2023-06-14T14:21:14;4.88;;;3.80;;
23362;SDS011;11853;48.080;11.960;2023-06-14T14:23:45;4.45;;;3.22;;
23362;SDS011;11853;48.080;11.960;2023-06-14T14:26:17;3.72;;;3.40;;
23362;SDS011;11853;48.080;11.960;2023-06-14T14:28:52;4.82;;;3.58;;
23362;SDS011;11853;48.080;11.960;2023-06-14T14:31:18;3.67;;;3.30;;
23362;SDS011;11853;48.080;11.960;2023-06-14T14:34:07;3.45;;;3.15;;
23362;SDS011;11853;48.080;11.960;2023-06-14T14:36:35;3.60;;;2.92;;
23362;SDS011;11853;48.080;11.960;2023-06-14T14:39:07;3.20;;;2.92;;
23362;SDS011;11853;48.080;11.960;2023-06-14T14:41:43;4.45;;;3.60;;
23362;SDS011;11853;48.080;11.960;2023-06-14T14:44:29;5.63;;;3.25;;
23362;SDS011;11853;48.080;11.960;2023-06-14T14:46:55;3.42;;;3.13;;
23362;SDS011;11853;48.080;11.960;2023-06-14T14:49:20;4.63;;;3.67;;
23362;SDS011;11853;48.080;11.960;2023-06-14T14:51:46;4.80;;;3.45;;
23362;SDS011;11853;48.080;11.960;2023-06-14T14:54:11;3.90;;;3.25;;
23362;SDS011;11853;48.080;11.960;2023-06-14T14:56:37;4.10;;;3.70;;
23362;SDS011;11853;48.080;11.960;2023-06-14T14:59:03;5.18;;;4.00;;
23362;SDS011;11853;48.080;11.960;2023-06-14T15:01:29;3.55;;;3.25;;
23362;SDS011;11853;48.080;11.960;2023-06-14T15:03:55;4.10;;;3.70;;
23362;SDS011;11853;48.080;11.960;2023-06-14T15:06:20;6.07;;;3.50;;
23362;SDS011;11853;48.080;11.960;2023-06-14T15:08:46;3.95;;;3.55;;